sensor_id;sensor_type;location;lat;lon;timestamp;P1;durP1;ratioP1;P2;durP2;ratioP2
43626;SDS011;29217;52.586;13.442;2023-12-20T00:01:50;14.18;;;6.53;;
43626;SDS011;29217;52.586;13.442;2023-12-20T00:04:16;10.43;;;5.93;;
43626;SDS011;29217;52.586;13.442;2023-12-20T00:06:42;11.50;;;5.88;;
43626;SDS011;29217;52.586;13.442;2023-12-20T00:09:09;12.15;;;5.30;;
43626;SDS011;29217;52.586;13.442;2023-12-20T00:11:35;12.18;;;5.05;;
43626;SDS011;29217;52.586;13.442;2023-12-20T00:14:01;11.63;;;5.45;;
43626;SDS011;29217;52.586;13.442;2023-12-20T00:16:27;13.73;;;6.40;;
43626;SDS011;29217;52.586;13.442;2023-12-20T00:18:53;9.82;;;5.28;;
43626;SDS011;29217;52.586;13.442;2023-12-20T00:21:19;9.10;;;4.75;;
43626;SDS011;29217;52.586;13.442;2023-12-20T00:23:45;11.18;;;5.53;;
43626;SDS011;29217;52.586;13.442;2023-12-20T00:26:11;10.73;;;5.32;;
43626;SDS011;29217;52.586;13.442;2023-12-20T00:28:37;11.70;;;6.05;;
43626;SDS011;29217;52.586;13.442;2023-12-20T00:31:03;9.40;;;5.05;;
43626;SDS011;29217;52.586;13.442;2023-12-20T00:33:29;8.98;;;5.20;;
43626;SDS011;29217;52.586;13.442;2023-12-20T00:35:55;12.32;;;5.07;;
43626;SDS011;29217;52.586;13.442;2023-12-20T00:38:21;14.10;;;6.45;;
43626;SDS011;29217;52.586;13.442;2023-12-20T00:40:47;11.07;;;5.40;;
43626;SDS011;29217;52.586;13.442;2023-12-20T00:43:14;10.13;;;5.28;;
43626;SDS011;29217;52.586;13.442;2023-12-20T00:45:40;11.45;;;5.18;;
43626;SDS011;29217;52.586;13.442;2023-12-20T00:48:06;11.23;;;5.47;;
43626;SDS011;29217;52.586;13.442;2023-12-20T00:50:32;12.13;;;5.20;;
43626;SDS011;29217;52.586;13.442;2023-12-20T00:52:59;11.18;;;5.50;;
43626;SDS011;29217;52.586;13.442;2023-12-20T00:55:25;10.38;;;5.15;;
43626;SDS011;29217;52.586;13.442;2023-12-20T00:57:51;8.90;;;5.35;;
43626;SDS011;29217;52.586;13.442;2023-12-20T01:00:18;12.20;;;5.65;;
43626;SDS011;29217;52.586;13.442;2023-12-20T01:02:44;10.93;;;5.40;;
43626;SDS011;29217;52.586;13.442;2023-12-20T01:05:11;10.30;;;5.20;;
43626;SDS011;29217;52.586;13.442;2023-12-20T01:07:37;11.10;;;5.35;;
43626;SDS011;29217;52.586;13.442;2023-12-20T01:10:03;9.90;;;5.15;;
43626;SDS011;29217;52.586;13.442;2023-12-20T01:12:29;11.98;;;5.78;;
43626;SDS011;29217;52.586;13.442;2023-12-20T01:14:55;8.32;;;4.95;;
43626;SDS011;29217;52.586;13.442;2023-12-20T01:17:23;13.63;;;6.07;;
43626;SDS011;29217;52.586;13.442;2023-12-20T01:19:49;13.15;;;6.03;;
43626;SDS011;29217;52.586;13.442;2023-12-20T01:22:15;11.48;;;5.32;;
43626;SDS011;29217;52.586;13.442;2023-12-20T01:24:41;11.38;;;5.00;;
43626;SDS011;29217;52.586;13.442;2023-12-20T01:27:07;10.32;;;5.28;;
43626;SDS011;29217;52.586;13.442;2023-12-20T01:29:33;10.20;;;5.43;;
43626;SDS011;29217;52.586;13.442;2023-12-20T01:31:59;9.52;;;5.03;;
43626;SDS011;29217;52.586;13.442;2023-12-20T01:34:25;10.30;;;5.60;;
43626;SDS011;29217;52.586;13.442;2023-12-20T01:36:51;9.30;;;4.72;;
43626;SDS011;29217;52.586;13.442;2023-12-20T01:39:17;9.40;;;4.80;;
43626;SDS011;29217;52.586;13.442;2023-12-20T01:41:43;8.70;;;4.50;;
43626;SDS011;29217;52.586;13.442;2023-12-20T01:44:10;11.05;;;5.20;;
43626;SDS011;29217;52.586;13.442;2023-12-20T01:46:36;8.20;;;4.45;;
43626;SDS011;29217;52.586;13.442;2023-12-20T01:49:02;7.38;;;4.22;;
43626;SDS011;29217;52.586;13.442;2023-12-20T01:51:28;11.48;;;5.45;;
43626;SDS011;29217;52.586;13.442;2023-12-20T01:53:55;8.25;;;4.55;;
43626;SDS011;29217;52.586;13.442;2023-12-20T01:56:21;10.38;;;4.68;;
43626;SDS011;29217;52.586;13.442;2023-12-20T01:58:48;10.10;;;4.25;;
43626;SDS011;29217;52.586;13.442;2023-12-20T02:01:14;8.98;;;4.47;;
43626;SDS011;29217;52.586;13.442;2023-12-20T02:03:40;10.55;;;5.03;;
43626;SDS011;29217;52.586;13.442;2023-12-20T02:06:07;9.10;;;4.47;;
43626;SDS011;29217;52.586;13.442;2023-12-20T02:08:34;9.77;;;4.43;;
43626;SDS011;29217;52.586;13.442;2023-12-20T02:11:00;10.88;;;4.53;;
43626;SDS011;29217;52.586;13.442;2023-12-20T02:13:26;7.80;;;4.15;;
43626;SDS011;29217;52.586;13.442;2023-12-20T02:15:52;6.13;;;3.38;;
43626;SDS011;29217;52.586;13.442;2023-12-20T02:18:18;7.45;;;3.85;;
43626;SDS011;29217;52.586;13.442;2023-12-20T02:20:44;8.75;;;3.63;;
43626;SDS011;29217;52.586;13.442;2023-12-20T02:23:10;7.63;;;3.90;;
43626;SDS011;29217;52.586;13.442;2023-12-20T02:25:36;8.02;;;3.53;;
43626;SDS011;29217;52.586;13.442;2023-12-20T02:28:02;5.65;;;3.42;;
43626;SDS011;29217;52.586;13.442;2023-12-20T02:30:29;9.43;;;4.00;;
43626;SDS011;29217;52.586;13.442;2023-12-20T02:32:55;6.10;;;3.38;;
43626;SDS011;29217;52.586;13.442;2023-12-20T02:35:22;6.68;;;3.15;;
43626;SDS011;29217;52.586;13.442;2023-12-20T02:37:48;8.02;;;3.63;;
43626;SDS011;29217;52.586;13.442;2023-12-20T02:40:14;8.50;;;3.65;;
43626;SDS011;29217;52.586;13.442;2023-12-20T02:42:40;6.00;;;2.97;;
43626;SDS011;29217;52.586;13.442;2023-12-20T02:45:06;8.07;;;3.00;;
43626;SDS011;29217;52.586;13.442;2023-12-20T02:47:32;7.47;;;2.38;;
43626;SDS011;29217;52.586;13.442;2023-12-20T02:49:58;4.15;;;2.33;;
43626;SDS011;29217;52.586;13.442;2023-12-20T02:52:24;4.20;;;2.50;;
43626;SDS011;29217;52.586;13.442;2023-12-20T02:54:50;3.72;;;2.10;;
43626;SDS011;29217;52.586;13.442;2023-12-20T02:57:16;4.25;;;2.45;;
43626;SDS011;29217;52.586;13.442;2023-12-20T02:59:42;4.25;;;2.40;;
43626;SDS011;29217;52.586;13.442;2023-12-20T03:02:08;4.60;;;2.42;;
43626;SDS011;29217;52.586;13.442;2023-12-20T03:04:34;6.30;;;2.17;;
43626;SDS011;29217;52.586;13.442;2023-12-20T03:07:00;7.32;;;2.25;;
43626;SDS011;29217;52.586;13.442;2023-12-20T03:09:26;6.28;;;2.38;;
43626;SDS011;29217;52.586;13.442;2023-12-20T03:11:52;9.32;;;2.47;;
43626;SDS011;29217;52.586;13.442;2023-12-20T03:14:18;6.57;;;2.65;;
43626;SDS011;29217;52.586;13.442;2023-12-20T03:16:50;6.50;;;2.53;;
43626;SDS011;29217;52.586;13.442;2023-12-20T03:19:17;5.88;;;2.58;;
43626;SDS011;29217;52.586;13.442;2023-12-20T03:21:44;9.55;;;2.25;;
43626;SDS011;29217;52.586;13.442;2023-12-20T03:24:09;3.97;;;2.10;;
43626;SDS011;29217;52.586;13.442;2023-12-20T03:26:35;7.45;;;2.20;;
43626;SDS011;29217;52.586;13.442;2023-12-20T03:29:01;5.75;;;2.20;;
43626;SDS011;29217;52.586;13.442;2023-12-20T03:31:27;8.10;;;2.30;;
43626;SDS011;29217;52.586;13.442;2023-12-20T03:33:53;5.95;;;2.30;;
43626;SDS011;29217;52.586;13.442;2023-12-20T03:36:20;2.70;;;2.00;;
43626;SDS011;29217;52.586;13.442;2023-12-20T03:38:46;9.95;;;2.70;;
43626;SDS011;29217;52.586;13.442;2023-12-20T03:41:12;4.05;;;2.22;;
43626;SDS011;29217;52.586;13.442;2023-12-20T03:43:38;5.72;;;2.33;;
43626;SDS011;29217;52.586;13.442;2023-12-20T03:46:04;3.90;;;2.00;;
43626;SDS011;29217;52.586;13.442;2023-12-20T03:48:30;5.50;;;2.50;;
43626;SDS011;29217;52.586;13.442;2023-12-20T03:50:56;11.10;;;2.60;;
43626;SDS011;29217;52.586;13.442;2023-12-20T03:53:23;10.27;;;2.08;;
43626;SDS011;29217;52.586;13.442;2023-12-20T03:55:49;6.25;;;1.77;;
43626;SDS011;29217;52.586;13.442;2023-12-20T03:58:15;3.95;;;1.98;;
43626;SDS011;29217;52.586;13.442;2023-12-20T04:00:40;6.90;;;2.40;;
43626;SDS011;29217;52.586;13.442;2023-12-20T04:03:06;6.75;;;2.20;;
43626;SDS011;29217;52.586;13.442;2023-12-20T04:05:33;4.05;;;2.28;;
43626;SDS011;29217;52.586;13.442;2023-12-20T04:07:59;10.40;;;2.33;;
43626;SDS011;29217;52.586;13.442;2023-12-20T04:10:25;8.32;;;1.98;;
43626;SDS011;29217;52.586;13.442;2023-12-20T04:12:51;4.97;;;2.28;;
43626;SDS011;29217;52.586;13.442;2023-12-20T04:15:17;9.43;;;2.40;;
43626;SDS011;29217;52.586;13.442;2023-12-20T04:17:43;9.10;;;2.17;;
43626;SDS011;29217;52.586;13.442;2023-12-20T04:20:09;3.95;;;2.13;;
43626;SDS011;29217;52.586;13.442;2023-12-20T04:22:35;6.88;;;2.42;;
43626;SDS011;29217;52.586;13.442;2023-12-20T04:25:01;4.45;;;2.28;;
43626;SDS011;29217;52.586;13.442;2023-12-20T04:27:27;7.03;;;2.25;;
43626;SDS011;29217;52.586;13.442;2023-12-20T04:29:54;3.25;;;2.00;;
43626;SDS011;29217;52.586;13.442;2023-12-20T04:32:19;12.80;;;1.92;;
43626;SDS011;29217;52.586;13.442;2023-12-20T04:34:45;10.27;;;2.00;;
43626;SDS011;29217;52.586;13.442;2023-12-20T04:37:11;6.93;;;2.00;;
43626;SDS011;29217;52.586;13.442;2023-12-20T04:39:37;2.95;;;2.10;;
43626;SDS011;29217;52.586;13.442;2023-12-20T04:42:04;6.25;;;2.13;;
43626;SDS011;29217;52.586;13.442;2023-12-20T04:44:30;4.65;;;2.15;;
43626;SDS011;29217;52.586;13.442;2023-12-20T04:46:56;3.55;;;2.20;;
43626;SDS011;29217;52.586;13.442;2023-12-20T04:49:22;6.93;;;2.38;;
43626;SDS011;29217;52.586;13.442;2023-12-20T04:51:48;7.50;;;2.00;;
43626;SDS011;29217;52.586;13.442;2023-12-20T04:54:14;10.27;;;2.30;;
43626;SDS011;29217;52.586;13.442;2023-12-20T04:56:40;10.25;;;2.28;;
43626;SDS011;29217;52.586;13.442;2023-12-20T04:59:06;5.32;;;1.92;;
43626;SDS011;29217;52.586;13.442;2023-12-20T05:01:32;5.68;;;2.50;;
43626;SDS011;29217;52.586;13.442;2023-12-20T05:03:58;8.10;;;1.90;;
43626;SDS011;29217;52.586;13.442;2023-12-20T05:06:24;3.55;;;1.70;;
43626;SDS011;29217;52.586;13.442;2023-12-20T05:08:50;11.88;;;2.00;;
43626;SDS011;29217;52.586;13.442;2023-12-20T05:11:17;4.47;;;1.50;;
43626;SDS011;29217;52.586;13.442;2023-12-20T05:13:42;3.53;;;1.75;;
43626;SDS011;29217;52.586;13.442;2023-12-20T05:16:08;3.85;;;1.85;;
43626;SDS011;29217;52.586;13.442;2023-12-20T05:18:34;6.90;;;1.98;;
43626;SDS011;29217;52.586;13.442;2023-12-20T05:21:00;6.68;;;2.15;;
43626;SDS011;29217;52.586;13.442;2023-12-20T05:23:27;8.50;;;1.90;;
43626;SDS011;29217;52.586;13.442;2023-12-20T05:25:53;10.35;;;2.22;;
43626;SDS011;29217;52.586;13.442;2023-12-20T05:28:19;3.78;;;2.30;;
43626;SDS011;29217;52.586;13.442;2023-12-20T05:30:44;5.05;;;2.08;;
43626;SDS011;29217;52.586;13.442;2023-12-20T05:33:10;4.43;;;2.15;;
43626;SDS011;29217;52.586;13.442;2023-12-20T05:35:36;4.72;;;1.60;;
43626;SDS011;29217;52.586;13.442;2023-12-20T05:38:02;9.65;;;2.15;;
43626;SDS011;29217;52.586;13.442;2023-12-20T05:40:28;7.30;;;2.17;;
43626;SDS011;29217;52.586;13.442;2023-12-20T05:42:54;5.05;;;2.00;;
43626;SDS011;29217;52.586;13.442;2023-12-20T05:45:20;6.75;;;2.10;;
43626;SDS011;29217;52.586;13.442;2023-12-20T05:47:46;10.32;;;2.05;;
43626;SDS011;29217;52.586;13.442;2023-12-20T05:50:12;8.88;;;2.30;;
43626;SDS011;29217;52.586;13.442;2023-12-20T05:52:38;4.50;;;1.90;;
43626;SDS011;29217;52.586;13.442;2023-12-20T05:55:04;12.63;;;1.95;;
43626;SDS011;29217;52.586;13.442;2023-12-20T05:57:30;9.63;;;2.00;;
43626;SDS011;29217;52.586;13.442;2023-12-20T05:59:56;3.30;;;1.63;;
43626;SDS011;29217;52.586;13.442;2023-12-20T06:02:22;7.53;;;1.75;;
43626;SDS011;29217;52.586;13.442;2023-12-20T06:04:48;9.65;;;1.98;;
43626;SDS011;29217;52.586;13.442;2023-12-20T06:07:14;4.90;;;2.13;;
43626;SDS011;29217;52.586;13.442;2023-12-20T06:09:41;5.05;;;2.03;;
43626;SDS011;29217;52.586;13.442;2023-12-20T06:12:07;6.93;;;2.60;;
43626;SDS011;29217;52.586;13.442;2023-12-20T06:14:33;6.53;;;1.85;;
43626;SDS011;29217;52.586;13.442;2023-12-20T06:17:00;11.43;;;2.45;;
43626;SDS011;29217;52.586;13.442;2023-12-20T06:19:26;10.73;;;1.83;;
43626;SDS011;29217;52.586;13.442;2023-12-20T06:21:52;10.38;;;1.60;;
43626;SDS011;29217;52.586;13.442;2023-12-20T06:24:18;5.38;;;2.10;;
43626;SDS011;29217;52.586;13.442;2023-12-20T06:26:44;6.20;;;1.92;;
43626;SDS011;29217;52.586;13.442;2023-12-20T06:29:11;9.00;;;2.42;;
43626;SDS011;29217;52.586;13.442;2023-12-20T06:31:37;9.88;;;2.17;;
43626;SDS011;29217;52.586;13.442;2023-12-20T06:34:03;5.20;;;2.33;;
43626;SDS011;29217;52.586;13.442;2023-12-20T06:36:29;5.93;;;1.88;;
43626;SDS011;29217;52.586;13.442;2023-12-20T06:38:55;14.35;;;2.25;;
43626;SDS011;29217;52.586;13.442;2023-12-20T06:41:21;5.18;;;2.25;;
43626;SDS011;29217;52.586;13.442;2023-12-20T06:43:49;5.95;;;2.38;;
43626;SDS011;29217;52.586;13.442;2023-12-20T06:46:15;4.05;;;1.77;;
43626;SDS011;29217;52.586;13.442;2023-12-20T06:48:41;24.27;;;2.40;;
43626;SDS011;29217;52.586;13.442;2023-12-20T06:51:10;9.95;;;2.50;;
43626;SDS011;29217;52.586;13.442;2023-12-20T06:53:36;7.03;;;1.70;;
43626;SDS011;29217;52.586;13.442;2023-12-20T06:56:02;4.38;;;2.10;;
43626;SDS011;29217;52.586;13.442;2023-12-20T06:58:28;4.55;;;2.17;;
43626;SDS011;29217;52.586;13.442;2023-12-20T07:00:54;11.95;;;2.30;;
43626;SDS011;29217;52.586;13.442;2023-12-20T07:03:20;2.25;;;1.83;;
43626;SDS011;29217;52.586;13.442;2023-12-20T07:05:46;5.57;;;2.47;;
43626;SDS011;29217;52.586;13.442;2023-12-20T07:08:12;4.78;;;1.90;;
43626;SDS011;29217;52.586;13.442;2023-12-20T07:10:40;5.20;;;1.70;;
43626;SDS011;29217;52.586;13.442;2023-12-20T07:13:06;5.15;;;2.13;;
43626;SDS011;29217;52.586;13.442;2023-12-20T07:15:33;5.60;;;2.10;;
43626;SDS011;29217;52.586;13.442;2023-12-20T07:17:59;8.30;;;2.78;;
43626;SDS011;29217;52.586;13.442;2023-12-20T07:20:25;4.85;;;1.85;;
43626;SDS011;29217;52.586;13.442;2023-12-20T07:22:51;5.55;;;2.58;;
43626;SDS011;29217;52.586;13.442;2023-12-20T07:25:17;8.00;;;2.08;;
43626;SDS011;29217;52.586;13.442;2023-12-20T07:27:45;11.43;;;2.28;;
43626;SDS011;29217;52.586;13.442;2023-12-20T07:30:11;8.88;;;2.42;;
43626;SDS011;29217;52.586;13.442;2023-12-20T07:32:37;8.27;;;2.47;;
43626;SDS011;29217;52.586;13.442;2023-12-20T07:35:03;7.43;;;2.60;;
43626;SDS011;29217;52.586;13.442;2023-12-20T07:37:30;10.82;;;2.20;;
43626;SDS011;29217;52.586;13.442;2023-12-20T07:39:56;12.25;;;2.80;;
43626;SDS011;29217;52.586;13.442;2023-12-20T07:42:22;7.82;;;2.47;;
43626;SDS011;29217;52.586;13.442;2023-12-20T07:44:48;10.00;;;2.40;;
43626;SDS011;29217;52.586;13.442;2023-12-20T07:47:14;11.40;;;2.78;;
43626;SDS011;29217;52.586;13.442;2023-12-20T07:49:46;5.57;;;1.98;;
43626;SDS011;29217;52.586;13.442;2023-12-20T07:52:12;5.43;;;2.38;;
43626;SDS011;29217;52.586;13.442;2023-12-20T07:54:38;10.02;;;2.85;;
43626;SDS011;29217;52.586;13.442;2023-12-20T07:57:04;6.68;;;2.35;;
43626;SDS011;29217;52.586;13.442;2023-12-20T07:59:30;7.35;;;2.10;;
43626;SDS011;29217;52.586;13.442;2023-12-20T08:01:56;6.45;;;2.33;;
43626;SDS011;29217;52.586;13.442;2023-12-20T08:04:22;6.78;;;2.28;;
43626;SDS011;29217;52.586;13.442;2023-12-20T08:06:48;4.38;;;2.08;;
43626;SDS011;29217;52.586;13.442;2023-12-20T08:09:14;4.18;;;2.50;;
43626;SDS011;29217;52.586;13.442;2023-12-20T08:11:44;9.82;;;2.03;;
43626;SDS011;29217;52.586;13.442;2023-12-20T08:14:10;12.20;;;2.03;;
43626;SDS011;29217;52.586;13.442;2023-12-20T08:16:36;4.75;;;2.70;;
43626;SDS011;29217;52.586;13.442;2023-12-20T08:19:02;7.15;;;2.00;;
43626;SDS011;29217;52.586;13.442;2023-12-20T08:21:28;3.83;;;1.52;;
43626;SDS011;29217;52.586;13.442;2023-12-20T08:23:54;3.97;;;2.08;;
43626;SDS011;29217;52.586;13.442;2023-12-20T08:26:20;8.70;;;1.70;;
43626;SDS011;29217;52.586;13.442;2023-12-20T08:28:48;12.27;;;3.05;;
43626;SDS011;29217;52.586;13.442;2023-12-20T08:31:14;3.47;;;2.00;;
43626;SDS011;29217;52.586;13.442;2023-12-20T08:33:41;11.05;;;2.38;;
43626;SDS011;29217;52.586;13.442;2023-12-20T08:36:07;7.93;;;2.10;;
43626;SDS011;29217;52.586;13.442;2023-12-20T08:38:33;14.07;;;1.83;;
43626;SDS011;29217;52.586;13.442;2023-12-20T08:40:59;9.45;;;2.30;;
43626;SDS011;29217;52.586;13.442;2023-12-20T08:43:26;13.27;;;2.53;;
43626;SDS011;29217;52.586;13.442;2023-12-20T08:45:52;11.05;;;2.08;;
43626;SDS011;29217;52.586;13.442;2023-12-20T08:48:18;9.18;;;2.40;;
43626;SDS011;29217;52.586;13.442;2023-12-20T08:50:44;6.25;;;1.90;;
43626;SDS011;29217;52.586;13.442;2023-12-20T08:53:10;5.07;;;2.47;;
43626;SDS011;29217;52.586;13.442;2023-12-20T08:55:36;7.63;;;2.17;;
43626;SDS011;29217;52.586;13.442;2023-12-20T08:58:02;7.22;;;1.90;;
43626;SDS011;29217;52.586;13.442;2023-12-20T09:00:28;6.75;;;2.42;;
43626;SDS011;29217;52.586;13.442;2023-12-20T09:02:54;2.83;;;1.63;;
43626;SDS011;29217;52.586;13.442;2023-12-20T09:05:20;11.07;;;2.55;;
43626;SDS011;29217;52.586;13.442;2023-12-20T09:07:47;8.40;;;2.22;;
43626;SDS011;29217;52.586;13.442;2023-12-20T09:10:13;4.07;;;2.22;;
43626;SDS011;29217;52.586;13.442;2023-12-20T09:12:39;7.85;;;2.50;;
43626;SDS011;29217;52.586;13.442;2023-12-20T09:15:06;8.57;;;2.53;;
43626;SDS011;29217;52.586;13.442;2023-12-20T09:17:32;3.00;;;2.05;;
43626;SDS011;29217;52.586;13.442;2023-12-20T09:19:58;9.02;;;2.63;;
43626;SDS011;29217;52.586;13.442;2023-12-20T09:22:25;7.25;;;2.45;;
43626;SDS011;29217;52.586;13.442;2023-12-20T09:24:51;5.85;;;2.15;;
43626;SDS011;29217;52.586;13.442;2023-12-20T09:27:17;7.45;;;1.83;;
43626;SDS011;29217;52.586;13.442;2023-12-20T09:29:42;11.57;;;2.28;;
43626;SDS011;29217;52.586;13.442;2023-12-20T09:32:08;2.90;;;1.63;;
43626;SDS011;29217;52.586;13.442;2023-12-20T09:34:34;7.88;;;2.42;;
43626;SDS011;29217;52.586;13.442;2023-12-20T09:37:02;4.15;;;2.25;;
43626;SDS011;29217;52.586;13.442;2023-12-20T09:39:28;9.93;;;2.38;;
43626;SDS011;29217;52.586;13.442;2023-12-20T09:44:22;5.75;;;2.33;;
43626;SDS011;29217;52.586;13.442;2023-12-20T09:46:49;5.75;;;2.15;;
43626;SDS011;29217;52.586;13.442;2023-12-20T09:49:17;3.88;;;2.03;;
43626;SDS011;29217;52.586;13.442;2023-12-20T09:51:43;8.15;;;2.08;;
43626;SDS011;29217;52.586;13.442;2023-12-20T09:54:09;3.95;;;1.90;;
43626;SDS011;29217;52.586;13.442;2023-12-20T09:56:35;5.70;;;2.10;;
43626;SDS011;29217;52.586;13.442;2023-12-20T09:59:03;5.22;;;1.90;;
43626;SDS011;29217;52.586;13.442;2023-12-20T10:01:29;8.82;;;2.10;;
43626;SDS011;29217;52.586;13.442;2023-12-20T10:03:57;10.00;;;2.00;;
43626;SDS011;29217;52.586;13.442;2023-12-20T10:06:25;5.10;;;2.63;;
43626;SDS011;29217;52.586;13.442;2023-12-20T10:08:51;7.90;;;2.17;;
43626;SDS011;29217;52.586;13.442;2023-12-20T10:11:18;6.20;;;1.60;;
43626;SDS011;29217;52.586;13.442;2023-12-20T10:13:45;4.05;;;1.98;;
43626;SDS011;29217;52.586;13.442;2023-12-20T10:16:13;7.55;;;2.20;;
43626;SDS011;29217;52.586;13.442;2023-12-20T10:18:39;3.85;;;2.13;;
43626;SDS011;29217;52.586;13.442;2023-12-20T10:21:05;4.25;;;2.03;;
43626;SDS011;29217;52.586;13.442;2023-12-20T10:23:32;11.38;;;3.15;;
43626;SDS011;29217;52.586;13.442;2023-12-20T10:25:58;7.18;;;2.08;;
43626;SDS011;29217;52.586;13.442;2023-12-20T10:28:25;11.32;;;2.15;;
43626;SDS011;29217;52.586;13.442;2023-12-20T10:30:53;3.67;;;2.05;;
43626;SDS011;29217;52.586;13.442;2023-12-20T10:33:25;8.27;;;2.10;;
43626;SDS011;29217;52.586;13.442;2023-12-20T10:35:52;5.32;;;2.10;;
43626;SDS011;29217;52.586;13.442;2023-12-20T10:38:18;8.23;;;1.92;;
43626;SDS011;29217;52.586;13.442;2023-12-20T10:40:45;5.78;;;2.03;;
43626;SDS011;29217;52.586;13.442;2023-12-20T10:43:11;4.13;;;2.15;;
43626;SDS011;29217;52.586;13.442;2023-12-20T10:45:38;5.75;;;1.98;;
43626;SDS011;29217;52.586;13.442;2023-12-20T10:48:04;6.70;;;1.85;;
43626;SDS011;29217;52.586;13.442;2023-12-20T10:50:31;7.03;;;2.72;;
43626;SDS011;29217;52.586;13.442;2023-12-20T10:52:57;3.17;;;1.83;;
43626;SDS011;29217;52.586;13.442;2023-12-20T10:55:24;5.10;;;1.67;;
43626;SDS011;29217;52.586;13.442;2023-12-20T10:57:51;5.55;;;1.85;;
43626;SDS011;29217;52.586;13.442;2023-12-20T11:00:18;4.85;;;2.20;;
43626;SDS011;29217;52.586;13.442;2023-12-20T11:02:44;3.63;;;1.77;;
43626;SDS011;29217;52.586;13.442;2023-12-20T11:07:43;4.93;;;1.80;;
43626;SDS011;29217;52.586;13.442;2023-12-20T11:10:31;9.93;;;2.05;;
43626;SDS011;29217;52.586;13.442;2023-12-20T11:12:58;7.68;;;1.77;;
43626;SDS011;29217;52.586;13.442;2023-12-20T11:15:27;6.63;;;2.05;;
43626;SDS011;29217;52.586;13.442;2023-12-20T11:17:57;10.77;;;2.10;;
43626;SDS011;29217;52.586;13.442;2023-12-20T11:20:23;7.05;;;2.00;;
43626;SDS011;29217;52.586;13.442;2023-12-20T11:22:53;11.15;;;2.17;;
43626;SDS011;29217;52.586;13.442;2023-12-20T11:25:19;12.50;;;2.33;;
43626;SDS011;29217;52.586;13.442;2023-12-20T11:27:46;9.05;;;2.55;;
43626;SDS011;29217;52.586;13.442;2023-12-20T11:30:40;6.13;;;2.10;;
43626;SDS011;29217;52.586;13.442;2023-12-20T11:33:07;4.30;;;2.05;;
43626;SDS011;29217;52.586;13.442;2023-12-20T11:35:33;8.25;;;2.40;;
43626;SDS011;29217;52.586;13.442;2023-12-20T11:38:01;6.97;;;2.30;;
43626;SDS011;29217;52.586;13.442;2023-12-20T11:40:27;3.70;;;2.00;;
43626;SDS011;29217;52.586;13.442;2023-12-20T11:42:53;6.15;;;2.35;;
43626;SDS011;29217;52.586;13.442;2023-12-20T11:45:23;9.52;;;3.13;;
43626;SDS011;29217;52.586;13.442;2023-12-20T11:47:51;9.05;;;3.08;;
43626;SDS011;29217;52.586;13.442;2023-12-20T11:50:20;8.93;;;2.50;;
43626;SDS011;29217;52.586;13.442;2023-12-20T11:52:47;13.85;;;3.20;;
43626;SDS011;29217;52.586;13.442;2023-12-20T11:55:13;7.75;;;2.38;;
43626;SDS011;29217;52.586;13.442;2023-12-20T11:57:39;8.13;;;2.17;;
43626;SDS011;29217;52.586;13.442;2023-12-20T12:00:06;5.38;;;2.20;;
43626;SDS011;29217;52.586;13.442;2023-12-20T12:02:32;8.43;;;2.30;;
43626;SDS011;29217;52.586;13.442;2023-12-20T12:04:59;7.82;;;2.58;;
43626;SDS011;29217;52.586;13.442;2023-12-20T12:07:25;4.95;;;2.03;;
43626;SDS011;29217;52.586;13.442;2023-12-20T12:09:51;11.63;;;2.25;;
43626;SDS011;29217;52.586;13.442;2023-12-20T12:12:17;3.25;;;1.80;;
43626;SDS011;29217;52.586;13.442;2023-12-20T12:14:44;8.88;;;2.33;;
43626;SDS011;29217;52.586;13.442;2023-12-20T12:17:13;5.95;;;2.33;;
43626;SDS011;29217;52.586;13.442;2023-12-20T12:19:42;8.45;;;2.33;;
43626;SDS011;29217;52.586;13.442;2023-12-20T12:22:15;6.63;;;2.80;;
43626;SDS011;29217;52.586;13.442;2023-12-20T12:24:45;3.15;;;1.80;;
43626;SDS011;29217;52.586;13.442;2023-12-20T12:27:12;5.53;;;1.95;;
43626;SDS011;29217;52.586;13.442;2023-12-20T12:29:39;9.52;;;2.10;;
43626;SDS011;29217;52.586;13.442;2023-12-20T12:32:08;6.57;;;1.92;;
43626;SDS011;29217;52.586;13.442;2023-12-20T12:34:35;4.85;;;2.50;;
43626;SDS011;29217;52.586;13.442;2023-12-20T12:37:02;12.23;;;2.83;;
43626;SDS011;29217;52.586;13.442;2023-12-20T12:39:29;8.85;;;1.98;;
43626;SDS011;29217;52.586;13.442;2023-12-20T12:41:55;8.25;;;2.22;;
43626;SDS011;29217;52.586;13.442;2023-12-20T12:44:22;2.95;;;1.75;;
43626;SDS011;29217;52.586;13.442;2023-12-20T12:46:50;9.95;;;2.20;;
43626;SDS011;29217;52.586;13.442;2023-12-20T12:49:16;3.95;;;1.88;;
43626;SDS011;29217;52.586;13.442;2023-12-20T12:51:42;4.80;;;1.98;;
43626;SDS011;29217;52.586;13.442;2023-12-20T12:54:08;5.97;;;2.42;;
43626;SDS011;29217;52.586;13.442;2023-12-20T12:56:35;6.55;;;2.00;;
43626;SDS011;29217;52.586;13.442;2023-12-20T12:59:01;10.82;;;2.30;;
43626;SDS011;29217;52.586;13.442;2023-12-20T13:01:27;7.60;;;2.47;;
43626;SDS011;29217;52.586;13.442;2023-12-20T13:03:53;3.53;;;2.47;;
43626;SDS011;29217;52.586;13.442;2023-12-20T13:06:19;15.70;;;2.70;;
43626;SDS011;29217;52.586;13.442;2023-12-20T13:08:45;5.57;;;2.15;;
43626;SDS011;29217;52.586;13.442;2023-12-20T13:11:11;6.55;;;2.70;;
43626;SDS011;29217;52.586;13.442;2023-12-20T13:13:37;5.95;;;2.75;;
43626;SDS011;29217;52.586;13.442;2023-12-20T13:16:04;7.03;;;1.92;;
43626;SDS011;29217;52.586;13.442;2023-12-20T13:18:30;6.05;;;1.98;;
43626;SDS011;29217;52.586;13.442;2023-12-20T13:20:56;2.05;;;1.88;;
43626;SDS011;29217;52.586;13.442;2023-12-20T13:23:22;11.13;;;2.25;;
43626;SDS011;29217;52.586;13.442;2023-12-20T13:25:48;4.53;;;1.70;;
43626;SDS011;29217;52.586;13.442;2023-12-20T13:28:14;3.35;;;1.65;;
43626;SDS011;29217;52.586;13.442;2023-12-20T13:30:40;4.82;;;1.83;;
43626;SDS011;29217;52.586;13.442;2023-12-20T13:33:06;2.00;;;1.45;;
43626;SDS011;29217;52.586;13.442;2023-12-20T13:35:33;3.78;;;1.42;;
43626;SDS011;29217;52.586;13.442;2023-12-20T13:38:00;4.68;;;1.70;;
43626;SDS011;29217;52.586;13.442;2023-12-20T13:40:26;4.05;;;1.30;;
43626;SDS011;29217;52.586;13.442;2023-12-20T13:42:53;2.00;;;1.48;;
43626;SDS011;29217;52.586;13.442;2023-12-20T13:45:19;3.90;;;1.50;;
43626;SDS011;29217;52.586;13.442;2023-12-20T13:47:45;3.15;;;1.30;;
43626;SDS011;29217;52.586;13.442;2023-12-20T13:50:11;2.05;;;1.10;;
43626;SDS011;29217;52.586;13.442;2023-12-20T13:52:38;2.55;;;1.10;;
43626;SDS011;29217;52.586;13.442;2023-12-20T13:55:04;1.40;;;1.10;;
43626;SDS011;29217;52.586;13.442;2023-12-20T13:57:32;1.25;;;1.15;;
43626;SDS011;29217;52.586;13.442;2023-12-20T13:59:58;5.57;;;1.15;;
43626;SDS011;29217;52.586;13.442;2023-12-20T14:02:24;3.53;;;1.35;;
43626;SDS011;29217;52.586;13.442;2023-12-20T14:04:51;7.75;;;1.20;;
43626;SDS011;29217;52.586;13.442;2023-12-20T14:07:18;1.95;;;1.10;;
43626;SDS011;29217;52.586;13.442;2023-12-20T14:09:44;2.25;;;1.27;;
43626;SDS011;29217;52.586;13.442;2023-12-20T14:12:13;2.50;;;1.40;;
43626;SDS011;29217;52.586;13.442;2023-12-20T14:14:39;1.27;;;1.10;;
43626;SDS011;29217;52.586;13.442;2023-12-20T14:17:05;1.48;;;1.38;;
43626;SDS011;29217;52.586;13.442;2023-12-20T14:19:31;1.67;;;1.20;;
43626;SDS011;29217;52.586;13.442;2023-12-20T14:21:57;2.65;;;1.20;;
43626;SDS011;29217;52.586;13.442;2023-12-20T14:24:26;4.18;;;1.55;;
43626;SDS011;29217;52.586;13.442;2023-12-20T14:26:52;2.45;;;1.50;;
43626;SDS011;29217;52.586;13.442;2023-12-20T14:29:18;3.00;;;1.38;;
43626;SDS011;29217;52.586;13.442;2023-12-20T14:31:44;2.60;;;1.52;;